H.m. Hidalgo — WDB3867 — position and weather

sailwx.info

Track history (hours):
 
Tides and Currents Weather Stations Pressure Air Temp Water Temp Dewpoint Dewpoint Depression Visibility Wind Speed Wind Dir Waves Ship Positions

H.m. Hidalgo

Owner: PACIFIC TUGBOAT SERVICE INC, SAN DIEGO, CA. More information available from US FCC via Universal Licensing System and Coast Guard Vessel Documentation Center.

Last reported at 2017-Dec-14 18:23 UTC. Time now 2017-Dec-17 17:44 UTC.
Position N 32°38' W 117°21'.

Length 25 m; draft 4 m.

Type: Tow > 200 m length. MMSI: 366892180.

Date/timePositionNaut miles runAvg speedWind from/ knotsBaromVisibWave heightAir tempDewpointWater temp
2017-Dec-14 18:23N 32°38' W 117°21'5 0.2
2017-Dec-13 20:57N 32°37' W 117°16'5 3.2
2017-Dec-13 19:15N 32°39' W 117°22'1 0.4
2017-Dec-13 17:51N 32°38' W 117°22'5 0.2
2017-Dec-12 21:10N 32°37' W 117°16'1 6.4
2017-Dec-12 20:59N 32°38' W 117°17'3 6.4
2017-Dec-12 20:30N 32°39' W 117°20'1 1.4
2017-Dec-12 19:55N 32°40' W 117°20'1 3.2
2017-Dec-12 19:30N 32°41' W 117°21'3 3.6
2017-Dec-12 18:32N 32°38' W 117°21'0 2.8
2017-Dec-12 18:31N 32°38' W 117°21'5 0.1
2017-Dec-11 00:01N 32°38' W 117°15'5 9.9
2017-Dec-10 23:30N 32°42' W 117°19'5 9.9
2017-Dec-10 23:01N 32°46' W 117°22'5 9.7
2017-Dec-10 22:31N 32°50' W 117°26'5 9.8
2017-Dec-10 22:00N 32°54' W 117°29'6 9.8
2017-Dec-10 21:26N 32°58' W 117°33'4 9.7
2017-Dec-10 21:00N 33°02' W 117°36'5 9.7
2017-Dec-10 20:30N 33°06' W 117°39'5 9.7
2017-Dec-10 20:01N 33°10' W 117°43'43 1.1
2017-Dec-09 06:36N 33°41' W 118°17'1 9.9
2017-Dec-09 06:31N 33°41' W 118°18'510.5
2017-Dec-09 06:01N 33°42' W 118°24'510.3
2017-Dec-09 05:30N 33°45' W 118°30'510.1
2017-Dec-09 05:00N 33°47' W 118°35'510.2
2017-Dec-09 04:31N 33°50' W 118°41'510.3
2017-Dec-09 04:00N 33°52' W 118°46'510.3
2017-Dec-09 03:31N 33°55' W 118°51'510.2
2017-Dec-09 03:00N 33°58' W 118°57'5 9.7
2017-Dec-09 02:31N 34°00' W 119°02'5 9.6
2017-Dec-09 02:00N 34°03' W 119°06'5 9.8
2017-Dec-09 01:30N 34°06' W 119°11'4 5.8
2017-Dec-09 00:53N 34°09' W 119°13'0 0.1
2017-Dec-09 00:28N 34°09' W 119°13'0 0.2
2017-Dec-08 23:59N 34°09' W 119°13'3 6.0
2017-Dec-08 23:25N 34°06' W 119°15'3 7.8
2017-Dec-08 23:00N 34°03' W 119°16'4 7.9
2017-Dec-08 22:27N 33°59' W 119°18'3 7.6
2017-Dec-08 22:00N 33°56' W 119°19'4 7.6
2017-Dec-08 21:31N 33°52' W 119°21'4 7.9
2017-Dec-08 21:00N 33°48' W 119°23'2 3.6
2017-Dec-08 20:30N 33°47' W 119°21'5 9.8
2017-Dec-08 20:00N 33°44' W 119°16'510.1
2017-Dec-08 19:31N 33°40' W 119°13'5 8.2
2017-Dec-08 18:56N 33°36' W 119°10'1 1.6
2017-Dec-08 18:31N 33°37' W 119°10'0 0.6
2017-Dec-08 18:00N 33°37' W 119°09'0 0.5
2017-Dec-08 17:30N 33°37' W 119°09'0 0.4
2017-Dec-08 16:47N 33°36' W 119°09'1 4.4
2017-Dec-08 16:30N 33°38' W 119°09'2 4.4
2017-Dec-08 16:01N 33°38' W 119°11'3 6.2
2017-Dec-08 15:31N 33°38' W 119°15'1 0.9
2017-Dec-08 14:52N 33°38' W 119°16'1 1.5
2017-Dec-08 14:19N 33°38' W 119°15'1 2.0
2017-Dec-08 14:01N 33°38' W 119°16'1 2.3
2017-Dec-08 13:30N 33°38' W 119°17'1 2.5
2017-Dec-08 13:01N 33°38' W 119°18'2 3.1
2017-Dec-08 12:29N 33°39' W 119°19'2 3.2
2017-Dec-08 12:00N 33°41' W 119°19'2 3.1
2017-Dec-08 11:29N 33°42' W 119°20'2 3.1
2017-Dec-08 10:58N 33°44' W 119°20'1 3.1
2017-Dec-08 10:30N 33°45' W 119°20'2 3.7
2017-Dec-08 10:00N 33°47' W 119°20'3 5.2
2017-Dec-08 09:30N 33°50' W 119°19'3 5.3
2017-Dec-08 09:00N 33°52' W 119°18'3 5.7
2017-Dec-08 08:30N 33°55' W 119°17'3 6.3
2017-Dec-08 08:00N 33°58' W 119°15'3 6.1
2017-Dec-08 07:30N 34°01' W 119°15'3 6.5
2017-Dec-08 07:00N 34°04' W 119°14'4 7.4
2017-Dec-08 06:30N 34°08' W 119°14'2 3.1
2017-Dec-08 06:00N 34°09' W 119°13'0 0.2
2017-Dec-08 05:30N 34°09' W 119°13'0 0.0
2017-Dec-08 04:59N 34°09' W 119°13'0 0.0
2017-Dec-08 04:25N 34°09' W 119°13'0 0.0
2017-Dec-08 04:00N 34°09' W 119°13'0 0.0
2017-Dec-08 03:27N 34°09' W 119°13'0 0.0
2017-Dec-08 03:00N 34°09' W 119°13'0 0.0
2017-Dec-08 02:28N 34°09' W 119°13'0 0.0
2017-Dec-08 01:57N 34°09' W 119°13'0 0.0
2017-Dec-08 01:25N 34°09' W 119°13'0 0.0
2017-Dec-08 01:00N 34°09' W 119°13'0 0.0
2017-Dec-08 00:30N 34°09' W 119°13'0 0.0
2017-Dec-07 23:59N 34°09' W 119°13'0 0.0
2017-Dec-07 23:27N 34°09' W 119°13'0 0.0
2017-Dec-07 22:55N 34°09' W 119°13'0 0.0
2017-Dec-07 22:29N 34°09' W 119°13'0 0.0
2017-Dec-07 21:59N 34°09' W 119°13'0 0.0
2017-Dec-07 21:30N 34°09' W 119°13'0 0.0
2017-Dec-07 20:59N 34°09' W 119°13'0 0.0
2017-Dec-07 20:21N 34°09' W 119°13'0 0.0
2017-Dec-07 19:58N 34°09' W 119°13'0 0.0
2017-Dec-07 19:29N 34°09' W 119°13'0 0.0
2017-Dec-07 19:00N 34°09' W 119°13'0 0.0
2017-Dec-07 18:27N 34°09' W 119°13'0 0.0
2017-Dec-07 17:57N 34°09' W 119°13'0 0.0
2017-Dec-07 17:29N 34°09' W 119°13'0 0.0
2017-Dec-07 17:00N 34°09' W 119°13'0 0.0
2017-Dec-07 16:30N 34°09' W 119°13'0 0.0
2017-Dec-07 16:00N 34°09' W 119°13'0 0.0
2017-Dec-07 15:29N 34°09' W 119°13'0 0.0
2017-Dec-07 14:59N 34°09' W 119°13'0 0.0
2017-Dec-07 14:29N 34°09' W 119°13'0 0.0
2017-Dec-07 14:00N 34°09' W 119°13'0 0.0
2017-Dec-07 13:29N 34°09' W 119°13'0 0.0
2017-Dec-07 13:00N 34°09' W 119°13'0 0.0
2017-Dec-07 12:29N 34°09' W 119°13'0 0.0
2017-Dec-07 11:57N 34°09' W 119°13'0 0.0
2017-Dec-07 11:30N 34°09' W 119°13'0 0.0
2017-Dec-07 11:00N 34°09' W 119°13'0 0.0
2017-Dec-07 10:30N 34°09' W 119°13'0 0.0
2017-Dec-07 10:00N 34°09' W 119°13'0 0.0
2017-Dec-07 09:29N 34°09' W 119°13'0 0.0
2017-Dec-07 08:57N 34°09' W 119°13'0 0.0
2017-Dec-07 08:30N 34°09' W 119°13'0 0.0
2017-Dec-07 08:00N 34°09' W 119°13'0 0.0
2017-Dec-07 07:30N 34°09' W 119°13'0 0.0
2017-Dec-07 06:59N 34°09' W 119°13'0 0.0
2017-Dec-07 06:30N 34°09' W 119°13'0 0.0
2017-Dec-07 05:58N 34°09' W 119°13'0 0.0
2017-Dec-07 05:23N 34°09' W 119°13'0 0.0
2017-Dec-07 05:01N 34°09' W 119°13'0 0.0
2017-Dec-07 04:30N 34°09' W 119°13'0 0.0
2017-Dec-07 03:57N 34°09' W 119°13'0 0.0
2017-Dec-07 03:30N 34°09' W 119°13'0 0.0
2017-Dec-07 03:00N 34°09' W 119°13'0 0.0
2017-Dec-07 02:30N 34°09' W 119°13'0 0.0
2017-Dec-07 01:56N 34°09' W 119°13'0 0.0
2017-Dec-07 01:27N 34°09' W 119°13'0 0.0
2017-Dec-07 01:00N 34°09' W 119°13'0 0.0
2017-Dec-07 00:29N 34°09' W 119°13'0 0.0
2017-Dec-06 23:57N 34°09' W 119°13'0 0.0
2017-Dec-06 23:30N 34°09' W 119°13'0 0.0
2017-Dec-06 23:00N 34°09' W 119°13'0 0.0
2017-Dec-06 22:30N 34°09' W 119°13'0 0.0
2017-Dec-06 22:00N 34°09' W 119°13'0 0.0
2017-Dec-06 21:28N 34°09' W 119°13'0 0.0
2017-Dec-06 21:00N 34°09' W 119°13'  
Track history (hours):
 
Tides and Currents Weather Stations Pressure Air Temp Water Temp Dewpoint Dewpoint Depression Visibility Wind Speed Wind Dir Waves Ship Positions

H.m. Hidalgo

Owner: PACIFIC TUGBOAT SERVICE INC, SAN DIEGO, CA. More information available from US FCC via Universal Licensing System and Coast Guard Vessel Documentation Center.

Last reported at 2017-Dec-14 18:23 UTC. Time now 2017-Dec-17 17:44 UTC.
Position N 32°38' W 117°21'.

Length 25 m; draft 4 m.

Type: Tow > 200 m length. MMSI: 366892180.

Date/timePositionNaut miles runAvg speedWind from/ knotsBaromVisibWave heightAir tempDewpointWater temp
2017-Dec-14 18:23N 32°38' W 117°21'5 0.2
2017-Dec-13 20:57N 32°37' W 117°16'5 3.2
2017-Dec-13 19:15N 32°39' W 117°22'1 0.4
2017-Dec-13 17:51N 32°38' W 117°22'5 0.2
2017-Dec-12 21:10N 32°37' W 117°16'1 6.4
2017-Dec-12 20:59N 32°38' W 117°17'3 6.4
2017-Dec-12 20:30N 32°39' W 117°20'1 1.4
2017-Dec-12 19:55N 32°40' W 117°20'1 3.2
2017-Dec-12 19:30N 32°41' W 117°21'3 3.6
2017-Dec-12 18:32N 32°38' W 117°21'0 2.8
2017-Dec-12 18:31N 32°38' W 117°21'5 0.1
2017-Dec-11 00:01N 32°38' W 117°15'5 9.9
2017-Dec-10 23:30N 32°42' W 117°19'5 9.9
2017-Dec-10 23:01N 32°46' W 117°22'5 9.7
2017-Dec-10 22:31N 32°50' W 117°26'5 9.8
2017-Dec-10 22:00N 32°54' W 117°29'6 9.8
2017-Dec-10 21:26N 32°58' W 117°33'4 9.7
2017-Dec-10 21:00N 33°02' W 117°36'5 9.7
2017-Dec-10 20:30N 33°06' W 117°39'5 9.7
2017-Dec-10 20:01N 33°10' W 117°43'43 1.1
2017-Dec-09 06:36N 33°41' W 118°17'1 9.9
2017-Dec-09 06:31N 33°41' W 118°18'510.5
2017-Dec-09 06:01N 33°42' W 118°24'510.3
2017-Dec-09 05:30N 33°45' W 118°30'510.1
2017-Dec-09 05:00N 33°47' W 118°35'510.2
2017-Dec-09 04:31N 33°50' W 118°41'510.3
2017-Dec-09 04:00N 33°52' W 118°46'510.3
2017-Dec-09 03:31N 33°55' W 118°51'510.2
2017-Dec-09 03:00N 33°58' W 118°57'5 9.7
2017-Dec-09 02:31N 34°00' W 119°02'5 9.6
2017-Dec-09 02:00N 34°03' W 119°06'5 9.8
2017-Dec-09 01:30N 34°06' W 119°11'4 5.8
2017-Dec-09 00:53N 34°09' W 119°13'0 0.1
2017-Dec-09 00:28N 34°09' W 119°13'0 0.2
2017-Dec-08 23:59N 34°09' W 119°13'3 6.0
2017-Dec-08 23:25N 34°06' W 119°15'3 7.8
2017-Dec-08 23:00N 34°03' W 119°16'4 7.9
2017-Dec-08 22:27N 33°59' W 119°18'3 7.6
2017-Dec-08 22:00N 33°56' W 119°19'4 7.6
2017-Dec-08 21:31N 33°52' W 119°21'4 7.9
2017-Dec-08 21:00N 33°48' W 119°23'2 3.6
2017-Dec-08 20:30N 33°47' W 119°21'5 9.8
2017-Dec-08 20:00N 33°44' W 119°16'510.1
2017-Dec-08 19:31N 33°40' W 119°13'5 8.2
2017-Dec-08 18:56N 33°36' W 119°10'1 1.6
2017-Dec-08 18:31N 33°37' W 119°10'0 0.6
2017-Dec-08 18:00N 33°37' W 119°09'0 0.5
2017-Dec-08 17:30N 33°37' W 119°09'0 0.4
2017-Dec-08 16:47N 33°36' W 119°09'1 4.4
2017-Dec-08 16:30N 33°38' W 119°09'2 4.4
2017-Dec-08 16:01N 33°38' W 119°11'3 6.2
2017-Dec-08 15:31N 33°38' W 119°15'1 0.9
2017-Dec-08 14:52N 33°38' W 119°16'1 1.5
2017-Dec-08 14:19N 33°38' W 119°15'1 2.0
2017-Dec-08 14:01N 33°38' W 119°16'1 2.3
2017-Dec-08 13:30N 33°38' W 119°17'1 2.5
2017-Dec-08 13:01N 33°38' W 119°18'2 3.1
2017-Dec-08 12:29N 33°39' W 119°19'2 3.2
2017-Dec-08 12:00N 33°41' W 119°19'2 3.1
2017-Dec-08 11:29N 33°42' W 119°20'2 3.1
2017-Dec-08 10:58N 33°44' W 119°20'1 3.1
2017-Dec-08 10:30N 33°45' W 119°20'2 3.7
2017-Dec-08 10:00N 33°47' W 119°20'3 5.2
2017-Dec-08 09:30N 33°50' W 119°19'3 5.3
2017-Dec-08 09:00N 33°52' W 119°18'3 5.7
2017-Dec-08 08:30N 33°55' W 119°17'3 6.3
2017-Dec-08 08:00N 33°58' W 119°15'3 6.1
2017-Dec-08 07:30N 34°01' W 119°15'3 6.5
2017-Dec-08 07:00N 34°04' W 119°14'4 7.4
2017-Dec-08 06:30N 34°08' W 119°14'2 3.1
2017-Dec-08 06:00N 34°09' W 119°13'0 0.2
2017-Dec-08 05:30N 34°09' W 119°13'0 0.0
2017-Dec-08 04:59N 34°09' W 119°13'0 0.0
2017-Dec-08 04:25N 34°09' W 119°13'0 0.0
2017-Dec-08 04:00N 34°09' W 119°13'0 0.0
2017-Dec-08 03:27N 34°09' W 119°13'0 0.0
2017-Dec-08 03:00N 34°09' W 119°13'0 0.0
2017-Dec-08 02:28N 34°09' W 119°13'0 0.0
2017-Dec-08 01:57N 34°09' W 119°13'0 0.0
2017-Dec-08 01:25N 34°09' W 119°13'0 0.0
2017-Dec-08 01:00N 34°09' W 119°13'0 0.0
2017-Dec-08 00:30N 34°09' W 119°13'0 0.0
2017-Dec-07 23:59N 34°09' W 119°13'0 0.0
2017-Dec-07 23:27N 34°09' W 119°13'0 0.0
2017-Dec-07 22:55N 34°09' W 119°13'0 0.0
2017-Dec-07 22:29N 34°09' W 119°13'0 0.0
2017-Dec-07 21:59N 34°09' W 119°13'0 0.0
2017-Dec-07 21:30N 34°09' W 119°13'0 0.0
2017-Dec-07 20:59N 34°09' W 119°13'0 0.0
2017-Dec-07 20:21N 34°09' W 119°13'0 0.0
2017-Dec-07 19:58N 34°09' W 119°13'0 0.0
2017-Dec-07 19:29N 34°09' W 119°13'0 0.0
2017-Dec-07 19:00N 34°09' W 119°13'0 0.0
2017-Dec-07 18:27N 34°09' W 119°13'0 0.0
2017-Dec-07 17:57N 34°09' W 119°13'0 0.0
2017-Dec-07 17:29N 34°09' W 119°13'0 0.0
2017-Dec-07 17:00N 34°09' W 119°13'0 0.0
2017-Dec-07 16:30N 34°09' W 119°13'0 0.0
2017-Dec-07 16:00N 34°09' W 119°13'0 0.0
2017-Dec-07 15:29N 34°09' W 119°13'0 0.0
2017-Dec-07 14:59N 34°09' W 119°13'0 0.0
2017-Dec-07 14:29N 34°09' W 119°13'0 0.0
2017-Dec-07 14:00N 34°09' W 119°13'0 0.0
2017-Dec-07 13:29N 34°09' W 119°13'0 0.0
2017-Dec-07 13:00N 34°09' W 119°13'0 0.0
2017-Dec-07 12:29N 34°09' W 119°13'0 0.0
2017-Dec-07 11:57N 34°09' W 119°13'0 0.0
2017-Dec-07 11:30N 34°09' W 119°13'0 0.0
2017-Dec-07 11:00N 34°09' W 119°13'0 0.0
2017-Dec-07 10:30N 34°09' W 119°13'0 0.0
2017-Dec-07 10:00N 34°09' W 119°13'0 0.0
2017-Dec-07 09:29N 34°09' W 119°13'0 0.0
2017-Dec-07 08:57N 34°09' W 119°13'0 0.0
2017-Dec-07 08:30N 34°09' W 119°13'0 0.0
2017-Dec-07 08:00N 34°09' W 119°13'0 0.0
2017-Dec-07 07:30N 34°09' W 119°13'0 0.0
2017-Dec-07 06:59N 34°09' W 119°13'0 0.0
2017-Dec-07 06:30N 34°09' W 119°13'0 0.0
2017-Dec-07 05:58N 34°09' W 119°13'0 0.0
2017-Dec-07 05:23N 34°09' W 119°13'0 0.0
2017-Dec-07 05:01N 34°09' W 119°13'0 0.0
2017-Dec-07 04:30N 34°09' W 119°13'0 0.0
2017-Dec-07 03:57N 34°09' W 119°13'0 0.0
2017-Dec-07 03:30N 34°09' W 119°13'0 0.0
2017-Dec-07 03:00N 34°09' W 119°13'0 0.0
2017-Dec-07 02:30N 34°09' W 119°13'0 0.0
2017-Dec-07 01:56N 34°09' W 119°13'0 0.0
2017-Dec-07 01:27N 34°09' W 119°13'0 0.0
2017-Dec-07 01:00N 34°09' W 119°13'0 0.0
2017-Dec-07 00:29N 34°09' W 119°13'0 0.0
2017-Dec-06 23:57N 34°09' W 119°13'0 0.0
2017-Dec-06 23:30N 34°09' W 119°13'0 0.0
2017-Dec-06 23:00N 34°09' W 119°13'0 0.0
2017-Dec-06 22:30N 34°09' W 119°13'0 0.0
2017-Dec-06 22:00N 34°09' W 119°13'0 0.0
2017-Dec-06 21:28N 34°09' W 119°13'0 0.0
2017-Dec-06 21:00N 34°09' W 119°13'  

Dump ship's entire track history